sensor_id;sensor_type;location;lat;lon;timestamp;P1;durP1;ratioP1;P2;durP2;ratioP2
59571;SDS011;59406;45.602;11.904;2022-08-19T00:00:35;9.07;;;2.22;;
59571;SDS011;59406;45.602;11.904;2022-08-19T00:03:02;5.60;;;1.60;;
59571;SDS011;59406;45.602;11.904;2022-08-19T00:05:30;7.03;;;1.65;;
59571;SDS011;59406;45.602;11.904;2022-08-19T00:07:56;7.38;;;1.48;;
59571;SDS011;59406;45.602;11.904;2022-08-19T00:10:23;6.30;;;1.58;;
59571;SDS011;59406;45.602;11.904;2022-08-19T00:12:50;9.25;;;2.00;;
59571;SDS011;59406;45.602;11.904;2022-08-19T00:15:17;8.73;;;2.60;;
59571;SDS011;59406;45.602;11.904;2022-08-19T00:17:45;8.27;;;2.20;;
59571;SDS011;59406;45.602;11.904;2022-08-19T00:20:14;7.28;;;1.80;;
59571;SDS011;59406;45.602;11.904;2022-08-19T00:22:43;11.02;;;2.60;;
59571;SDS011;59406;45.602;11.904;2022-08-19T00:25:10;10.85;;;2.67;;
59571;SDS011;59406;45.602;11.904;2022-08-19T00:27:37;7.90;;;2.60;;
59571;SDS011;59406;45.602;11.904;2022-08-19T00:30:04;10.13;;;2.15;;
59571;SDS011;59406;45.602;11.904;2022-08-19T00:32:32;7.97;;;2.58;;
59571;SDS011;59406;45.602;11.904;2022-08-19T00:35:00;10.02;;;3.33;;
59571;SDS011;59406;45.602;11.904;2022-08-19T00:37:26;7.78;;;2.70;;
59571;SDS011;59406;45.602;11.904;2022-08-19T00:39:53;9.43;;;2.77;;
59571;SDS011;59406;45.602;11.904;2022-08-19T00:42:21;11.68;;;3.55;;
59571;SDS011;59406;45.602;11.904;2022-08-19T00:44:48;9.43;;;2.97;;
59571;SDS011;59406;45.602;11.904;2022-08-19T00:47:16;11.65;;;3.85;;
59571;SDS011;59406;45.602;11.904;2022-08-19T00:49:47;12.82;;;3.13;;
59571;SDS011;59406;45.602;11.904;2022-08-19T00:52:24;14.93;;;3.97;;
59571;SDS011;59406;45.602;11.904;2022-08-19T00:54:54;13.82;;;3.83;;
59571;SDS011;59406;45.602;11.904;2022-08-19T00:57:25;19.13;;;4.30;;
59571;SDS011;59406;45.602;11.904;2022-08-19T01:00:00;20.95;;;4.70;;
59571;SDS011;59406;45.602;11.904;2022-08-19T01:02:30;16.08;;;4.32;;
59571;SDS011;59406;45.602;11.904;2022-08-19T01:04:57;12.03;;;3.30;;
59571;SDS011;59406;45.602;11.904;2022-08-19T01:07:26;18.52;;;4.30;;
59571;SDS011;59406;45.602;11.904;2022-08-19T01:09:53;11.98;;;3.72;;
59571;SDS011;59406;45.602;11.904;2022-08-19T01:12:19;17.33;;;3.83;;
59571;SDS011;59406;45.602;11.904;2022-08-19T01:14:47;12.98;;;3.05;;
59571;SDS011;59406;45.602;11.904;2022-08-19T01:17:14;11.47;;;3.90;;
59571;SDS011;59406;45.602;11.904;2022-08-19T01:19:41;12.50;;;4.07;;
59571;SDS011;59406;45.602;11.904;2022-08-19T01:22:14;11.50;;;4.22;;
59571;SDS011;59406;45.602;11.904;2022-08-19T01:24:48;12.80;;;3.60;;
59571;SDS011;59406;45.602;11.904;2022-08-19T01:27:16;9.23;;;3.28;;
59571;SDS011;59406;45.602;11.904;2022-08-19T01:29:43;12.73;;;3.40;;
59571;SDS011;59406;45.602;11.904;2022-08-19T01:32:12;11.60;;;3.45;;
59571;SDS011;59406;45.602;11.904;2022-08-19T01:34:40;12.00;;;3.60;;
59571;SDS011;59406;45.602;11.904;2022-08-19T01:37:07;12.63;;;3.38;;
59571;SDS011;59406;45.602;11.904;2022-08-19T01:39:36;10.45;;;3.72;;
59571;SDS011;59406;45.602;11.904;2022-08-19T01:42:05;12.57;;;4.20;;
59571;SDS011;59406;45.602;11.904;2022-08-19T01:44:37;10.68;;;3.60;;
59571;SDS011;59406;45.602;11.904;2022-08-19T01:47:09;11.60;;;3.20;;
59571;SDS011;59406;45.602;11.904;2022-08-19T01:49:35;10.10;;;3.30;;
59571;SDS011;59406;45.602;11.904;2022-08-19T01:52:02;9.52;;;3.83;;
59571;SDS011;59406;45.602;11.904;2022-08-19T01:54:30;12.10;;;3.73;;
59571;SDS011;59406;45.602;11.904;2022-08-19T01:56:58;13.48;;;3.42;;
59571;SDS011;59406;45.602;11.904;2022-08-19T01:59:28;12.35;;;3.25;;
59571;SDS011;59406;45.602;11.904;2022-08-19T02:01:55;9.48;;;3.25;;
59571;SDS011;59406;45.602;11.904;2022-08-19T02:04:23;12.40;;;4.00;;
59571;SDS011;59406;45.602;11.904;2022-08-19T02:06:50;11.93;;;3.57;;
59571;SDS011;59406;45.602;11.904;2022-08-19T02:09:16;12.80;;;3.90;;
59571;SDS011;59406;45.602;11.904;2022-08-19T02:11:42;13.70;;;4.20;;
59571;SDS011;59406;45.602;11.904;2022-08-19T02:14:08;10.07;;;3.70;;
59571;SDS011;59406;45.602;11.904;2022-08-19T02:16:35;10.67;;;3.27;;
59571;SDS011;59406;45.602;11.904;2022-08-19T02:19:02;12.30;;;3.10;;
59571;SDS011;59406;45.602;11.904;2022-08-19T02:21:29;9.43;;;3.38;;
59571;SDS011;59406;45.602;11.904;2022-08-19T02:23:56;9.73;;;3.10;;
59571;SDS011;59406;45.602;11.904;2022-08-19T02:26:22;9.23;;;2.72;;
59571;SDS011;59406;45.602;11.904;2022-08-19T02:28:49;9.10;;;2.75;;
59571;SDS011;59406;45.602;11.904;2022-08-19T02:31:16;7.73;;;3.13;;
59571;SDS011;59406;45.602;11.904;2022-08-19T02:33:46;12.70;;;3.50;;
59571;SDS011;59406;45.602;11.904;2022-08-19T02:36:13;9.00;;;3.03;;
59571;SDS011;59406;45.602;11.904;2022-08-19T02:38:44;8.57;;;2.30;;
59571;SDS011;59406;45.602;11.904;2022-08-19T02:41:12;11.40;;;2.30;;
59571;SDS011;59406;45.602;11.904;2022-08-19T02:43:41;9.10;;;2.77;;
59571;SDS011;59406;45.602;11.904;2022-08-19T02:46:11;9.40;;;2.92;;
59571;SDS011;59406;45.602;11.904;2022-08-19T02:48:38;7.32;;;2.40;;
59571;SDS011;59406;45.602;11.904;2022-08-19T02:51:04;9.98;;;2.40;;
59571;SDS011;59406;45.602;11.904;2022-08-19T02:53:30;8.73;;;2.35;;
59571;SDS011;59406;45.602;11.904;2022-08-19T02:55:56;11.07;;;2.57;;
59571;SDS011;59406;45.602;11.904;2022-08-19T02:58:23;8.98;;;2.25;;
59571;SDS011;59406;45.602;11.904;2022-08-19T03:00:51;10.00;;;2.25;;
59571;SDS011;59406;45.602;11.904;2022-08-19T03:03:19;8.48;;;2.60;;
59571;SDS011;59406;45.602;11.904;2022-08-19T03:05:45;9.77;;;2.30;;
59571;SDS011;59406;45.602;11.904;2022-08-19T03:08:12;7.17;;;1.90;;
59571;SDS011;59406;45.602;11.904;2022-08-19T03:10:40;10.38;;;2.25;;
59571;SDS011;59406;45.602;11.904;2022-08-19T03:13:10;8.90;;;2.15;;
59571;SDS011;59406;45.602;11.904;2022-08-19T03:15:41;9.70;;;1.92;;
59571;SDS011;59406;45.602;11.904;2022-08-19T03:18:09;6.88;;;1.83;;
59571;SDS011;59406;45.602;11.904;2022-08-19T03:20:45;7.00;;;2.03;;
59571;SDS011;59406;45.602;11.904;2022-08-19T03:23:13;6.63;;;2.10;;
59571;SDS011;59406;45.602;11.904;2022-08-19T03:25:42;5.97;;;2.00;;
59571;SDS011;59406;45.602;11.904;2022-08-19T03:28:11;6.55;;;2.08;;
59571;SDS011;59406;45.602;11.904;2022-08-19T03:30:39;8.23;;;2.00;;
59571;SDS011;59406;45.602;11.904;2022-08-19T03:33:08;6.13;;;1.50;;
59571;SDS011;59406;45.602;11.904;2022-08-19T03:35:37;6.88;;;1.70;;
59571;SDS011;59406;45.602;11.904;2022-08-19T03:38:04;6.35;;;1.52;;
59571;SDS011;59406;45.602;11.904;2022-08-19T03:40:31;9.02;;;1.65;;
59571;SDS011;59406;45.602;11.904;2022-08-19T03:43:00;6.03;;;1.38;;
59571;SDS011;59406;45.602;11.904;2022-08-19T03:45:26;6.23;;;1.23;;
59571;SDS011;59406;45.602;11.904;2022-08-19T03:47:53;8.18;;;2.05;;
59571;SDS011;59406;45.602;11.904;2022-08-19T03:50:19;5.60;;;1.20;;
59571;SDS011;59406;45.602;11.904;2022-08-19T03:52:49;5.13;;;1.27;;
59571;SDS011;59406;45.602;11.904;2022-08-19T03:55:16;5.07;;;1.20;;
59571;SDS011;59406;45.602;11.904;2022-08-19T03:57:43;6.43;;;1.57;;
59571;SDS011;59406;45.602;11.904;2022-08-19T04:00:11;7.70;;;1.42;;
59571;SDS011;59406;45.602;11.904;2022-08-19T04:02:38;7.68;;;1.70;;
59571;SDS011;59406;45.602;11.904;2022-08-19T04:05:04;7.30;;;1.85;;
59571;SDS011;59406;45.602;11.904;2022-08-19T04:07:31;5.40;;;1.35;;
59571;SDS011;59406;45.602;11.904;2022-08-19T04:09:58;5.47;;;1.43;;
59571;SDS011;59406;45.602;11.904;2022-08-19T04:12:25;5.18;;;1.10;;
59571;SDS011;59406;45.602;11.904;2022-08-19T04:14:52;7.07;;;1.20;;
59571;SDS011;59406;45.602;11.904;2022-08-19T04:17:18;7.45;;;1.13;;
59571;SDS011;59406;45.602;11.904;2022-08-19T04:19:44;8.87;;;1.20;;
59571;SDS011;59406;45.602;11.904;2022-08-19T04:22:10;5.50;;;1.30;;
59571;SDS011;59406;45.602;11.904;2022-08-19T04:24:36;5.68;;;1.20;;
59571;SDS011;59406;45.602;11.904;2022-08-19T04:27:03;6.05;;;1.40;;
59571;SDS011;59406;45.602;11.904;2022-08-19T04:29:31;6.05;;;1.40;;
59571;SDS011;59406;45.602;11.904;2022-08-19T04:31:58;6.83;;;1.50;;
59571;SDS011;59406;45.602;11.904;2022-08-19T04:34:26;6.45;;;1.50;;
59571;SDS011;59406;45.602;11.904;2022-08-19T04:36:56;7.30;;;1.92;;
59571;SDS011;59406;45.602;11.904;2022-08-19T04:39:25;6.95;;;1.60;;
59571;SDS011;59406;45.602;11.904;2022-08-19T04:42:14;7.68;;;1.92;;
59571;SDS011;59406;45.602;11.904;2022-08-19T04:45:00;7.63;;;1.67;;
59571;SDS011;59406;45.602;11.904;2022-08-19T04:47:29;8.30;;;2.05;;
59571;SDS011;59406;45.602;11.904;2022-08-19T04:49:56;8.05;;;2.00;;
59571;SDS011;59406;45.602;11.904;2022-08-19T04:52:22;8.60;;;2.05;;
59571;SDS011;59406;45.602;11.904;2022-08-19T04:54:48;7.68;;;1.60;;
59571;SDS011;59406;45.602;11.904;2022-08-19T04:57:14;7.20;;;1.60;;
59571;SDS011;59406;45.602;11.904;2022-08-19T04:59:40;8.10;;;2.20;;
59571;SDS011;59406;45.602;11.904;2022-08-19T05:02:08;5.47;;;1.38;;
59571;SDS011;59406;45.602;11.904;2022-08-19T05:04:34;8.20;;;1.92;;
59571;SDS011;59406;45.602;11.904;2022-08-19T05:07:04;11.10;;;4.37;;
59571;SDS011;59406;45.602;11.904;2022-08-19T05:09:31;8.10;;;2.25;;
59571;SDS011;59406;45.602;11.904;2022-08-19T05:11:57;6.82;;;2.25;;
59571;SDS011;59406;45.602;11.904;2022-08-19T05:14:23;7.22;;;1.63;;
59571;SDS011;59406;45.602;11.904;2022-08-19T05:16:49;6.65;;;1.40;;
59571;SDS011;59406;45.602;11.904;2022-08-19T05:19:15;6.47;;;1.70;;
59571;SDS011;59406;45.602;11.904;2022-08-19T05:22:00;6.05;;;1.20;;
59571;SDS011;59406;45.602;11.904;2022-08-19T05:24:45;5.05;;;1.10;;
59571;SDS011;59406;45.602;11.904;2022-08-19T05:27:11;6.15;;;1.10;;
59571;SDS011;59406;45.602;11.904;2022-08-19T05:29:38;5.68;;;0.90;;
59571;SDS011;59406;45.602;11.904;2022-08-19T05:32:05;8.87;;;1.77;;
59571;SDS011;59406;45.602;11.904;2022-08-19T05:34:34;7.80;;;1.30;;
59571;SDS011;59406;45.602;11.904;2022-08-19T05:37:01;7.40;;;1.15;;
59571;SDS011;59406;45.602;11.904;2022-08-19T05:39:31;6.82;;;1.33;;
59571;SDS011;59406;45.602;11.904;2022-08-19T05:42:03;5.67;;;1.20;;
59571;SDS011;59406;45.602;11.904;2022-08-19T05:44:35;6.65;;;1.35;;
59571;SDS011;59406;45.602;11.904;2022-08-19T05:47:05;4.88;;;1.00;;
59571;SDS011;59406;45.602;11.904;2022-08-19T05:49:34;7.05;;;1.10;;
59571;SDS011;59406;45.602;11.904;2022-08-19T05:52:06;6.10;;;0.77;;
59571;SDS011;59406;45.602;11.904;2022-08-19T05:54:37;5.10;;;1.00;;
59571;SDS011;59406;45.602;11.904;2022-08-19T05:57:06;5.28;;;0.80;;
59571;SDS011;59406;45.602;11.904;2022-08-19T05:59:33;6.78;;;0.95;;
59571;SDS011;59406;45.602;11.904;2022-08-19T06:02:02;4.00;;;0.75;;
59571;SDS011;59406;45.602;11.904;2022-08-19T06:04:30;6.35;;;1.20;;
59571;SDS011;59406;45.602;11.904;2022-08-19T06:06:56;5.23;;;0.90;;
59571;SDS011;59406;45.602;11.904;2022-08-19T06:09:23;4.32;;;0.80;;
59571;SDS011;59406;45.602;11.904;2022-08-19T06:11:53;4.07;;;0.70;;
59571;SDS011;59406;45.602;11.904;2022-08-19T06:14:26;3.92;;;0.80;;
59571;SDS011;59406;45.602;11.904;2022-08-19T06:16:55;5.47;;;0.70;;
59571;SDS011;59406;45.602;11.904;2022-08-19T06:19:22;4.50;;;0.83;;
59571;SDS011;59406;45.602;11.904;2022-08-19T06:21:49;4.10;;;0.95;;
59571;SDS011;59406;45.602;11.904;2022-08-19T06:24:18;5.38;;;0.70;;
59571;SDS011;59406;45.602;11.904;2022-08-19T06:26:48;4.45;;;0.70;;
59571;SDS011;59406;45.602;11.904;2022-08-19T06:29:16;5.00;;;2.13;;
59571;SDS011;59406;45.602;11.904;2022-08-19T06:31:45;8.43;;;2.90;;
59571;SDS011;59406;45.602;11.904;2022-08-19T06:34:15;7.00;;;2.53;;
59571;SDS011;59406;45.602;11.904;2022-08-19T06:36:42;5.53;;;1.00;;
59571;SDS011;59406;45.602;11.904;2022-08-19T06:39:13;5.00;;;1.10;;
59571;SDS011;59406;45.602;11.904;2022-08-19T06:41:46;4.20;;;0.90;;
59571;SDS011;59406;45.602;11.904;2022-08-19T06:44:14;3.70;;;0.60;;
59571;SDS011;59406;45.602;11.904;2022-08-19T06:46:41;3.53;;;0.80;;
59571;SDS011;59406;45.602;11.904;2022-08-19T06:49:07;5.93;;;0.88;;
59571;SDS011;59406;45.602;11.904;2022-08-19T06:51:42;4.72;;;0.70;;
59571;SDS011;59406;45.602;11.904;2022-08-19T06:54:11;4.05;;;0.40;;
59571;SDS011;59406;45.602;11.904;2022-08-19T06:56:37;3.93;;;0.80;;
59571;SDS011;59406;45.602;11.904;2022-08-19T06:59:07;4.55;;;0.65;;
59571;SDS011;59406;45.602;11.904;2022-08-19T07:01:39;5.82;;;0.82;;
59571;SDS011;59406;45.602;11.904;2022-08-19T07:04:07;6.47;;;0.90;;
59571;SDS011;59406;45.602;11.904;2022-08-19T07:06:35;5.25;;;0.80;;
59571;SDS011;59406;45.602;11.904;2022-08-19T07:09:03;5.03;;;0.50;;
59571;SDS011;59406;45.602;11.904;2022-08-19T07:11:30;4.15;;;0.70;;
59571;SDS011;59406;45.602;11.904;2022-08-19T07:13:58;3.95;;;0.70;;
59571;SDS011;59406;45.602;11.904;2022-08-19T07:16:27;5.55;;;0.57;;
59571;SDS011;59406;45.602;11.904;2022-08-19T07:18:54;6.03;;;0.95;;
59571;SDS011;59406;45.602;11.904;2022-08-19T07:21:23;4.40;;;0.57;;
59571;SDS011;59406;45.602;11.904;2022-08-19T07:23:54;5.35;;;0.90;;
59571;SDS011;59406;45.602;11.904;2022-08-19T07:26:27;9.52;;;0.90;;
59571;SDS011;59406;45.602;11.904;2022-08-19T07:28:56;4.20;;;0.90;;
59571;SDS011;59406;45.602;11.904;2022-08-19T07:31:24;6.63;;;1.20;;
59571;SDS011;59406;45.602;11.904;2022-08-19T07:33:52;2.90;;;0.53;;
59571;SDS011;59406;45.602;11.904;2022-08-19T07:36:22;5.32;;;0.93;;
59571;SDS011;59406;45.602;11.904;2022-08-19T07:38:50;4.45;;;1.00;;
59571;SDS011;59406;45.602;11.904;2022-08-19T07:41:19;3.83;;;0.80;;
59571;SDS011;59406;45.602;11.904;2022-08-19T07:43:48;5.60;;;1.13;;
59571;SDS011;59406;45.602;11.904;2022-08-19T07:46:15;3.37;;;0.80;;
59571;SDS011;59406;45.602;11.904;2022-08-19T07:48:44;4.55;;;0.90;;
59571;SDS011;59406;45.602;11.904;2022-08-19T07:51:14;4.47;;;0.80;;
59571;SDS011;59406;45.602;11.904;2022-08-19T07:53:43;4.30;;;0.80;;
59571;SDS011;59406;45.602;11.904;2022-08-19T07:56:11;7.38;;;1.00;;
59571;SDS011;59406;45.602;11.904;2022-08-19T07:58:38;3.67;;;1.13;;
59571;SDS011;59406;45.602;11.904;2022-08-19T08:01:07;4.95;;;0.77;;
59571;SDS011;59406;45.602;11.904;2022-08-19T08:03:35;5.15;;;0.98;;
59571;SDS011;59406;45.602;11.904;2022-08-19T08:06:40;8.05;;;1.88;;
59571;SDS011;59406;45.602;11.904;2022-08-19T08:09:30;5.45;;;1.27;;
59571;SDS011;59406;45.602;11.904;2022-08-19T08:12:01;6.80;;;1.63;;
59571;SDS011;59406;45.602;11.904;2022-08-19T08:14:35;5.53;;;1.60;;
59571;SDS011;59406;45.602;11.904;2022-08-19T08:17:04;6.60;;;1.67;;
59571;SDS011;59406;45.602;11.904;2022-08-19T08:19:31;5.40;;;1.50;;
59571;SDS011;59406;45.602;11.904;2022-08-19T08:21:59;5.45;;;1.13;;
59571;SDS011;59406;45.602;11.904;2022-08-19T08:24:27;5.30;;;1.00;;
59571;SDS011;59406;45.602;11.904;2022-08-19T08:26:57;6.18;;;1.65;;
59571;SDS011;59406;45.602;11.904;2022-08-19T08:29:25;5.60;;;1.70;;
59571;SDS011;59406;45.602;11.904;2022-08-19T08:31:52;6.63;;;2.47;;
59571;SDS011;59406;45.602;11.904;2022-08-19T08:34:19;9.43;;;3.45;;
59571;SDS011;59406;45.602;11.904;2022-08-19T08:36:45;7.37;;;3.60;;
59571;SDS011;59406;45.602;11.904;2022-08-19T08:39:15;7.60;;;2.85;;
59571;SDS011;59406;45.602;11.904;2022-08-19T08:44:23;7.78;;;2.95;;
59571;SDS011;59406;45.602;11.904;2022-08-19T08:47:02;4.68;;;1.77;;
59571;SDS011;59406;45.602;11.904;2022-08-19T08:54:52;9.15;;;1.55;;
59571;SDS011;59406;45.602;11.904;2022-08-19T08:57:26;6.05;;;1.30;;
59571;SDS011;59406;45.602;11.904;2022-08-19T09:00:27;4.90;;;1.30;;
59571;SDS011;59406;45.602;11.904;2022-08-19T09:02:58;7.20;;;1.40;;
59571;SDS011;59406;45.602;11.904;2022-08-19T09:09:03;4.20;;;1.10;;
59571;SDS011;59406;45.602;11.904;2022-08-19T09:11:47;4.78;;;1.15;;
59571;SDS011;59406;45.602;11.904;2022-08-19T09:14:35;5.13;;;1.10;;
59571;SDS011;59406;45.602;11.904;2022-08-19T09:17:10;6.27;;;0.97;;
59571;SDS011;59406;45.602;11.904;2022-08-19T09:19:48;4.93;;;0.90;;
59571;SDS011;59406;45.602;11.904;2022-08-19T09:22:20;4.57;;;1.10;;
59571;SDS011;59406;45.602;11.904;2022-08-19T09:24:49;5.13;;;0.90;;
59571;SDS011;59406;45.602;11.904;2022-08-19T09:27:18;7.75;;;1.45;;
59571;SDS011;59406;45.602;11.904;2022-08-19T09:29:46;5.80;;;1.43;;
59571;SDS011;59406;45.602;11.904;2022-08-19T09:32:14;4.65;;;1.05;;
59571;SDS011;59406;45.602;11.904;2022-08-19T09:34:41;5.18;;;1.10;;
59571;SDS011;59406;45.602;11.904;2022-08-19T09:37:08;5.75;;;1.10;;
59571;SDS011;59406;45.602;11.904;2022-08-19T09:39:34;5.63;;;1.40;;
59571;SDS011;59406;45.602;11.904;2022-08-19T09:42:00;5.70;;;0.97;;
59571;SDS011;59406;45.602;11.904;2022-08-19T09:44:28;6.32;;;1.17;;
59571;SDS011;59406;45.602;11.904;2022-08-19T09:46:54;4.30;;;0.90;;
59571;SDS011;59406;45.602;11.904;2022-08-19T09:49:21;4.72;;;1.17;;
59571;SDS011;59406;45.602;11.904;2022-08-19T09:51:51;7.00;;;1.20;;
59571;SDS011;59406;45.602;11.904;2022-08-19T09:54:21;4.95;;;1.02;;
59571;SDS011;59406;45.602;11.904;2022-08-19T09:56:48;5.78;;;1.20;;
59571;SDS011;59406;45.602;11.904;2022-08-19T09:59:14;6.68;;;1.38;;
59571;SDS011;59406;45.602;11.904;2022-08-19T10:01:41;7.30;;;1.30;;
59571;SDS011;59406;45.602;11.904;2022-08-19T10:04:07;6.00;;;1.30;;
59571;SDS011;59406;45.602;11.904;2022-08-19T10:06:34;6.18;;;1.45;;
59571;SDS011;59406;45.602;11.904;2022-08-19T10:09:03;5.22;;;1.55;;
59571;SDS011;59406;45.602;11.904;2022-08-19T10:11:32;5.68;;;1.10;;
59571;SDS011;59406;45.602;11.904;2022-08-19T10:14:00;5.38;;;1.23;;
59571;SDS011;59406;45.602;11.904;2022-08-19T10:16:30;7.93;;;1.30;;
59571;SDS011;59406;45.602;11.904;2022-08-19T10:18:57;4.90;;;0.70;;
59571;SDS011;59406;45.602;11.904;2022-08-19T10:21:28;6.50;;;0.77;;
59571;SDS011;59406;45.602;11.904;2022-08-19T10:24:00;5.20;;;0.77;;
59571;SDS011;59406;45.602;11.904;2022-08-19T10:26:33;5.00;;;1.10;;
59571;SDS011;59406;45.602;11.904;2022-08-19T10:29:03;6.43;;;0.67;;
59571;SDS011;59406;45.602;11.904;2022-08-19T10:31:31;4.03;;;0.95;;
59571;SDS011;59406;45.602;11.904;2022-08-19T10:33:59;4.85;;;0.65;;
59571;SDS011;59406;45.602;11.904;2022-08-19T10:36:33;4.18;;;0.85;;
59571;SDS011;59406;45.602;11.904;2022-08-19T10:39:02;4.72;;;0.65;;
59571;SDS011;59406;45.602;11.904;2022-08-19T10:41:32;5.10;;;0.90;;
59571;SDS011;59406;45.602;11.904;2022-08-19T10:44:01;4.53;;;0.90;;
59571;SDS011;59406;45.602;11.904;2022-08-19T10:46:33;5.18;;;1.00;;
59571;SDS011;59406;45.602;11.904;2022-08-19T10:49:03;4.18;;;0.70;;
59571;SDS011;59406;45.602;11.904;2022-08-19T10:51:30;6.43;;;0.80;;
59571;SDS011;59406;45.602;11.904;2022-08-19T10:54:16;4.07;;;0.70;;
59571;SDS011;59406;45.602;11.904;2022-08-19T10:56:44;5.38;;;0.85;;
59571;SDS011;59406;45.602;11.904;2022-08-19T10:59:16;3.60;;;0.80;;
59571;SDS011;59406;45.602;11.904;2022-08-19T11:01:54;4.15;;;0.57;;
59571;SDS011;59406;45.602;11.904;2022-08-19T11:04:25;3.45;;;0.63;;
59571;SDS011;59406;45.602;11.904;2022-08-19T11:06:51;3.93;;;0.70;;
59571;SDS011;59406;45.602;11.904;2022-08-19T11:09:19;5.53;;;0.65;;
59571;SDS011;59406;45.602;11.904;2022-08-19T11:11:46;3.90;;;0.70;;
59571;SDS011;59406;45.602;11.904;2022-08-19T11:14:16;4.38;;;0.90;;
59571;SDS011;59406;45.602;11.904;2022-08-19T11:16:49;3.67;;;0.60;;
59571;SDS011;59406;45.602;11.904;2022-08-19T11:19:16;3.43;;;0.60;;
59571;SDS011;59406;45.602;11.904;2022-08-19T11:21:45;5.63;;;0.95;;
59571;SDS011;59406;45.602;11.904;2022-08-19T11:24:14;3.35;;;0.77;;
59571;SDS011;59406;45.602;11.904;2022-08-19T11:26:43;4.07;;;0.70;;
59571;SDS011;59406;45.602;11.904;2022-08-19T11:29:10;4.18;;;0.82;;
59571;SDS011;59406;45.602;11.904;2022-08-19T11:31:43;3.90;;;0.90;;
59571;SDS011;59406;45.602;11.904;2022-08-19T11:34:12;6.25;;;1.15;;
59571;SDS011;59406;45.602;11.904;2022-08-19T11:36:44;4.57;;;0.60;;
59571;SDS011;59406;45.602;11.904;2022-08-19T11:39:20;4.68;;;0.75;;
59571;SDS011;59406;45.602;11.904;2022-08-19T11:41:47;3.83;;;0.80;;
59571;SDS011;59406;45.602;11.904;2022-08-19T11:44:14;5.20;;;1.00;;
59571;SDS011;59406;45.602;11.904;2022-08-19T11:46:40;7.43;;;0.73;;
59571;SDS011;59406;45.602;11.904;2022-08-19T11:49:12;4.25;;;0.85;;
59571;SDS011;59406;45.602;11.904;2022-08-19T11:51:40;7.38;;;1.02;;
59571;SDS011;59406;45.602;11.904;2022-08-19T11:54:08;4.57;;;0.93;;
59571;SDS011;59406;45.602;11.904;2022-08-19T11:56:36;4.87;;;0.80;;
59571;SDS011;59406;45.602;11.904;2022-08-19T11:59:03;3.72;;;0.70;;
59571;SDS011;59406;45.602;11.904;2022-08-19T12:01:29;5.07;;;0.80;;
59571;SDS011;59406;45.602;11.904;2022-08-19T12:03:56;4.55;;;0.98;;
59571;SDS011;59406;45.602;11.904;2022-08-19T12:06:24;3.40;;;0.68;;
59571;SDS011;59406;45.602;11.904;2022-08-19T12:09:02;5.50;;;1.00;;
59571;SDS011;59406;45.602;11.904;2022-08-19T12:11:30;4.38;;;0.90;;
59571;SDS011;59406;45.602;11.904;2022-08-19T12:13:57;4.70;;;0.80;;
59571;SDS011;59406;45.602;11.904;2022-08-19T12:16:24;4.05;;;0.95;;
59571;SDS011;59406;45.602;11.904;2022-08-19T12:18:53;3.80;;;0.90;;
59571;SDS011;59406;45.602;11.904;2022-08-19T12:21:21;3.83;;;1.07;;
59571;SDS011;59406;45.602;11.904;2022-08-19T12:23:50;6.45;;;1.15;;
59571;SDS011;59406;45.602;11.904;2022-08-19T12:26:17;5.25;;;0.77;;
59571;SDS011;59406;45.602;11.904;2022-08-19T12:28:43;4.88;;;1.30;;
59571;SDS011;59406;45.602;11.904;2022-08-19T12:31:10;5.60;;;1.10;;
59571;SDS011;59406;45.602;11.904;2022-08-19T12:33:39;5.25;;;1.20;;
59571;SDS011;59406;45.602;11.904;2022-08-19T12:36:07;6.20;;;1.00;;
59571;SDS011;59406;45.602;11.904;2022-08-19T12:38:35;5.22;;;1.25;;
59571;SDS011;59406;45.602;11.904;2022-08-19T12:41:02;5.30;;;0.90;;
59571;SDS011;59406;45.602;11.904;2022-08-19T12:43:33;5.47;;;1.10;;
59571;SDS011;59406;45.602;11.904;2022-08-19T12:46:05;4.55;;;1.00;;
59571;SDS011;59406;45.602;11.904;2022-08-19T12:48:31;5.68;;;1.10;;
59571;SDS011;59406;45.602;11.904;2022-08-19T12:50:58;3.80;;;1.08;;
59571;SDS011;59406;45.602;11.904;2022-08-19T12:53:25;4.53;;;1.30;;
59571;SDS011;59406;45.602;11.904;2022-08-19T12:55:55;5.07;;;0.90;;
59571;SDS011;59406;45.602;11.904;2022-08-19T12:58:22;4.10;;;0.80;;
59571;SDS011;59406;45.602;11.904;2022-08-19T13:00:48;3.60;;;0.80;;
59571;SDS011;59406;45.602;11.904;2022-08-19T13:03:14;3.63;;;0.75;;
59571;SDS011;59406;45.602;11.904;2022-08-19T13:05:40;3.00;;;0.73;;
59571;SDS011;59406;45.602;11.904;2022-08-19T13:08:06;5.60;;;0.90;;
59571;SDS011;59406;45.602;11.904;2022-08-19T13:10:33;5.47;;;1.10;;
59571;SDS011;59406;45.602;11.904;2022-08-19T13:13:01;3.72;;;0.90;;
59571;SDS011;59406;45.602;11.904;2022-08-19T13:15:33;4.32;;;0.90;;
59571;SDS011;59406;45.602;11.904;2022-08-19T13:18:00;5.53;;;1.00;;
59571;SDS011;59406;45.602;11.904;2022-08-19T13:20:26;2.92;;;0.90;;
59571;SDS011;59406;45.602;11.904;2022-08-19T13:22:53;4.53;;;0.98;;
59571;SDS011;59406;45.602;11.904;2022-08-19T13:25:20;3.58;;;0.95;;
59571;SDS011;59406;45.602;11.904;2022-08-19T13:27:47;4.38;;;0.90;;
59571;SDS011;59406;45.602;11.904;2022-08-19T13:30:15;5.70;;;1.00;;
59571;SDS011;59406;45.602;11.904;2022-08-19T13:33:00;4.07;;;1.08;;
59571;SDS011;59406;45.602;11.904;2022-08-19T13:35:57;4.20;;;0.90;;
59571;SDS011;59406;45.602;11.904;2022-08-19T13:38:24;3.65;;;0.85;;
59571;SDS011;59406;45.602;11.904;2022-08-19T13:40:51;6.60;;;0.80;;
59571;SDS011;59406;45.602;11.904;2022-08-19T13:43:18;4.53;;;0.90;;
59571;SDS011;59406;45.602;11.904;2022-08-19T13:45:47;3.75;;;1.20;;
59571;SDS011;59406;45.602;11.904;2022-08-19T13:48:18;3.72;;;0.77;;
59571;SDS011;59406;45.602;11.904;2022-08-19T13:50:44;4.25;;;0.82;;
59571;SDS011;59406;45.602;11.904;2022-08-19T13:53:12;3.65;;;1.08;;
59571;SDS011;59406;45.602;11.904;2022-08-19T13:55:39;4.50;;;1.40;;
59571;SDS011;59406;45.602;11.904;2022-08-19T13:58:07;3.95;;;0.90;;
59571;SDS011;59406;45.602;11.904;2022-08-19T14:00:37;4.90;;;0.90;;
59571;SDS011;59406;45.602;11.904;2022-08-19T14:03:05;5.25;;;1.40;;
59571;SDS011;59406;45.602;11.904;2022-08-19T14:05:31;4.67;;;1.10;;
59571;SDS011;59406;45.602;11.904;2022-08-19T14:07:58;5.15;;;1.05;;
59571;SDS011;59406;45.602;11.904;2022-08-19T14:10:25;6.68;;;0.95;;
59571;SDS011;59406;45.602;11.904;2022-08-19T14:12:56;4.82;;;1.02;;
59571;SDS011;59406;45.602;11.904;2022-08-19T14:15:25;4.55;;;1.00;;
59571;SDS011;59406;45.602;11.904;2022-08-19T14:17:54;3.77;;;1.30;;
59571;SDS011;59406;45.602;11.904;2022-08-19T14:20:21;4.35;;;1.10;;
59571;SDS011;59406;45.602;11.904;2022-08-19T14:22:47;4.35;;;1.30;;
59571;SDS011;59406;45.602;11.904;2022-08-19T14:25:15;3.45;;;0.90;;
59571;SDS011;59406;45.602;11.904;2022-08-19T14:27:43;3.72;;;1.10;;
59571;SDS011;59406;45.602;11.904;2022-08-19T14:30:11;4.07;;;1.13;;
59571;SDS011;59406;45.602;11.904;2022-08-19T14:32:40;4.03;;;1.10;;
59571;SDS011;59406;45.602;11.904;2022-08-19T14:35:08;4.70;;;1.10;;
59571;SDS011;59406;45.602;11.904;2022-08-19T14:37:35;4.40;;;0.85;;
59571;SDS011;59406;45.602;11.904;2022-08-19T14:40:02;3.38;;;1.27;;
59571;SDS011;59406;45.602;11.904;2022-08-19T14:42:29;5.30;;;2.10;;
59571;SDS011;59406;45.602;11.904;2022-08-19T14:44:59;4.78;;;1.27;;
59571;SDS011;59406;45.602;11.904;2022-08-19T14:47:26;4.30;;;1.30;;
59571;SDS011;59406;45.602;11.904;2022-08-19T14:49:55;6.50;;;1.23;;
59571;SDS011;59406;45.602;11.904;2022-08-19T14:52:20;4.53;;;1.20;;
59571;SDS011;59406;45.602;11.904;2022-08-19T14:54:47;4.93;;;1.43;;